createdAt,value
2019-05-12T00:01:09.337Z,63.63
2019-05-12T00:03:43.082Z,64.45
2019-05-12T00:06:17.666Z,64.17
2019-05-12T00:08:51.556Z,64.26
2019-05-12T00:11:25.269Z,64.26
2019-05-12T00:13:58.962Z,62.87
2019-05-12T00:16:32.654Z,62.87
2019-05-12T00:19:09.076Z,64.88
2019-05-12T00:21:41.826Z,64.88
2019-05-12T00:24:18.506Z,65.78
2019-05-12T00:26:51.556Z,66.99
2019-05-12T00:29:25.249Z,66.79
2019-05-12T00:31:58.948Z,65.43
2019-05-12T00:34:32.652Z,64.62
2019-05-12T00:37:08.177Z,64.62
2019-05-12T00:39:41.741Z,65.81
2019-05-12T00:42:15.426Z,65.81
2019-05-12T00:44:49.134Z,66.87
2019-05-12T00:47:22.833Z,66.87
2019-05-12T00:49:58.319Z,65.37
2019-05-12T00:52:32.116Z,65.26
2019-05-12T00:55:08.029Z,65.26
2019-05-12T00:57:41.249Z,66.04
2019-05-12T01:00:14.947Z,66.04
2019-05-12T01:02:48.680Z,65.01
2019-05-12T01:05:22.399Z,64.71
2019-05-12T01:07:58.241Z,64.71
2019-05-12T01:10:31.540Z,64.29
2019-05-12T01:13:08.249Z,64.26
2019-05-12T01:15:41.227Z,64.96
2019-05-12T01:18:14.931Z,64.96
2019-05-12T01:20:48.649Z,65.69
2019-05-12T01:23:23.467Z,65.12
2019-05-12T01:25:58.604Z,65.12
2019-05-12T01:28:32.694Z,64.76
2019-05-12T01:31:08.456Z,65.69
2019-05-12T01:33:41.773Z,65.69
2019-05-12T01:36:15.470Z,65.93
2019-05-12T01:38:49.178Z,64.94
2019-05-12T01:41:22.879Z,64.04
2019-05-12T01:43:58.403Z,63.70
2019-05-12T01:46:32.002Z,63.39
2019-05-12T01:49:07.995Z,63.76
2019-05-12T01:51:41.085Z,62.80
2019-05-12T01:54:15.268Z,62.39
2019-05-12T01:56:49.172Z,62.39
2019-05-12T01:59:22.880Z,62.36
2019-05-12T02:01:58.087Z,63.98
2019-05-12T02:04:31.944Z,65.99
2019-05-12T02:07:08.226Z,65.03
2019-05-12T02:09:41.844Z,63.21
2019-05-12T02:12:15.544Z,62.06
2019-05-12T02:14:49.245Z,60.93
2019-05-12T02:17:22.938Z,60.56
2019-05-12T02:19:58.571Z,60.15
2019-05-12T02:22:32.023Z,60.59
2019-05-12T02:25:07.956Z,60.23
2019-05-12T02:27:41.168Z,60.23
2019-05-12T02:30:15.121Z,60.27
2019-05-12T02:32:53.538Z,61.18
2019-05-12T02:35:24.847Z,63.02
2019-05-12T02:37:58.707Z,63.02
2019-05-12T02:40:34.725Z,66.87
2019-05-12T02:43:07.806Z,64.85
2019-05-12T02:45:44.518Z,62.24
2019-05-12T02:48:16.911Z,61.13
2019-05-12T02:50:50.593Z,61.13
2019-05-12T02:53:24.969Z,61.88
2019-05-12T02:55:58.892Z,65.01
2019-05-12T02:58:34.664Z,63.95
2019-05-12T03:01:08.471Z,65.75
2019-05-12T03:03:44.140Z,65.75
2019-05-12T03:06:18.311Z,65.11
2019-05-12T03:08:54.946Z,65.11
2019-05-12T03:11:27.801Z,70.67
2019-05-12T03:14:03.920Z,70.67
2019-05-12T03:16:36.937Z,69.19
2019-05-12T03:19:14.760Z,69.95
2019-05-12T03:21:46.761Z,69.95
2019-05-12T03:24:20.493Z,68.93
2019-05-12T03:26:55.343Z,70.27
2019-05-12T03:29:29.243Z,70.62
2019-05-12T03:32:08.248Z,70.62
2019-05-12T03:34:38.977Z,70.24
2019-05-12T03:37:17.973Z,71.95
2019-05-12T03:39:48.582Z,70.32
2019-05-12T03:42:25.147Z,70.32
2019-05-12T03:44:57.682Z,71.03
2019-05-12T03:47:31.385Z,68.04
2019-05-12T03:50:06.047Z,68.04
2019-05-12T03:52:39.761Z,68.75
2019-05-12T03:55:30.815Z,69.04
2019-05-12T03:57:50.749Z,67.26
2019-05-12T04:00:24.951Z,69.04
2019-05-12T04:02:58.736Z,70.38
2019-05-12T04:05:34.993Z,69.46
2019-05-12T04:08:08.326Z,68.92
2019-05-12T04:10:45.160Z,68.33
2019-05-12T04:13:17.495Z,68.33
2019-05-12T04:15:51.185Z,70.03
2019-05-12T04:18:24.920Z,70.03
2019-05-12T04:20:58.709Z,68.61
2019-05-12T04:23:34.847Z,68.61
2019-05-12T04:26:12.149Z,69.15
2019-05-12T04:28:45.572Z,70.01
2019-05-12T04:31:18.650Z,71.53
2019-05-12T04:33:54.683Z,70.38
2019-05-12T04:36:27.752Z,70.70
2019-05-12T04:39:04.220Z,73.43
2019-05-12T04:41:36.870Z,73.43
2019-05-12T04:44:10.576Z,73.08
2019-05-12T04:46:47.078Z,72.80
2019-05-12T04:49:19.659Z,71.67
2019-05-12T04:51:54.612Z,70.74
2019-05-12T04:54:28.564Z,72.78
2019-05-12T04:57:04.165Z,71.80
2019-05-12T04:59:37.662Z,71.34
2019-05-12T05:02:11.365Z,70.42
2019-05-12T05:04:45.081Z,70.43
2019-05-12T05:07:18.792Z,70.43
2019-05-12T05:09:54.850Z,71.60
2019-05-12T05:12:27.877Z,72.17
2019-05-12T05:15:01.647Z,72.10
2019-05-12T05:17:35.350Z,72.10
2019-05-12T05:20:09.035Z,71.18
2019-05-12T05:22:44.029Z,71.72
2019-05-12T05:25:18.043Z,71.72
2019-05-12T05:27:53.335Z,71.50
2019-05-12T05:30:27.154Z,70.47
2019-05-12T05:33:00.844Z,70.47
2019-05-12T05:35:39.320Z,71.91
2019-05-12T05:38:10.721Z,71.66
2019-05-12T05:40:45.471Z,71.88
2019-05-12T05:43:19.220Z,71.47
2019-05-12T05:45:56.154Z,71.49
2019-05-12T05:48:28.401Z,71.49
2019-05-12T05:51:07.427Z,70.61
2019-05-12T05:53:37.592Z,71.37
2019-05-12T05:56:11.288Z,71.47
2019-05-12T05:58:47.002Z,71.42
2019-05-12T06:01:20.424Z,71.00
2019-05-12T06:03:58.393Z,71.00
2019-05-12T06:06:29.549Z,70.40
2019-05-12T06:09:04.474Z,69.75
2019-05-12T06:11:38.194Z,70.07
2019-05-12T06:14:14.016Z,70.07
2019-05-12T06:16:47.325Z,68.07
2019-05-12T06:19:24.093Z,67.09
2019-05-12T06:21:56.506Z,66.81
2019-05-12T06:24:30.220Z,66.56
2019-05-12T06:27:14.321Z,66.01
2019-05-12T06:29:39.327Z,65.65
2019-05-12T06:32:14.267Z,65.65
2019-05-12T06:34:50.880Z,64.08
2019-05-12T06:37:23.741Z,63.95
2019-05-12T06:40:00.467Z,63.95
2019-05-12T06:42:34.192Z,64.73
2019-05-12T06:45:08.053Z,65.25
2019-05-12T06:47:45.272Z,65.25
2019-05-12T06:50:17.158Z,64.14
2019-05-12T06:52:52.761Z,64.12
2019-05-12T06:55:28.597Z,64.12
2019-05-12T06:58:01.651Z,62.79
2019-05-12T07:00:35.533Z,61.84
2019-05-12T07:03:09.360Z,62.53
2019-05-12T07:05:45.194Z,62.85
2019-05-12T07:08:26.474Z,62.85
2019-05-12T07:11:02.093Z,61.69
2019-05-12T07:13:29.617Z,61.69
2019-05-12T07:16:03.822Z,62.20
2019-05-12T07:18:37.665Z,61.50
2019-05-12T07:21:17.829Z,61.50
2019-05-12T07:23:46.769Z,61.19
2019-05-12T07:26:20.479Z,60.46
2019-05-12T07:28:54.247Z,60.56
2019-05-12T07:31:27.967Z,60.41
2019-05-12T07:34:05.352Z,58.97
2019-05-12T07:36:37.137Z,59.35
2019-05-12T07:39:10.850Z,59.10
2019-05-12T07:41:50.756Z,58.86
2019-05-12T07:44:22.206Z,57.70
2019-05-12T07:46:55.502Z,57.42
2019-05-12T07:49:33.973Z,56.82
2019-05-12T07:52:04.600Z,54.12
2019-05-12T07:54:39.611Z,53.35
2019-05-12T07:57:17.273Z,53.35
2019-05-12T07:59:48.857Z,53.68
2019-05-12T08:02:31.387Z,53.75
2019-05-12T08:04:57.970Z,53.75
2019-05-12T08:07:33.666Z,52.25
2019-05-12T08:10:15.909Z,52.25
2019-05-12T08:12:44.520Z,51.17
2019-05-12T08:15:18.350Z,51.17
2019-05-12T08:17:57.757Z,50.32
2019-05-12T08:20:27.464Z,52.36
2019-05-12T08:23:05.738Z,52.33
2019-05-12T08:25:36.556Z,50.95
2019-05-12T08:28:15.346Z,51.25
2019-05-12T08:30:50.496Z,51.88
2019-05-12T08:33:21.072Z,51.88
2019-05-12T08:35:55.326Z,51.30
2019-05-12T08:38:29.251Z,50.86
2019-05-12T08:41:04.240Z,51.12
2019-05-12T08:43:40.695Z,51.77
2019-05-12T08:46:15.669Z,51.77
2019-05-12T08:48:51.576Z,52.04
2019-05-12T08:51:25.062Z,52.04
2019-05-12T08:54:02.312Z,50.49
2019-05-12T08:56:34.373Z,49.88
2019-05-12T08:59:09.636Z,49.88
2019-05-12T09:01:43.879Z,51.56
2019-05-12T09:04:18.445Z,50.58
2019-05-12T09:06:56.387Z,50.34
2019-05-12T09:09:27.633Z,49.59
2019-05-12T09:12:03.422Z,48.71
2019-05-12T09:14:41.384Z,49.45
2019-05-12T09:17:13.846Z,48.61
2019-05-12T09:19:47.728Z,48.61
2019-05-12T09:22:23.985Z,49.77
2019-05-12T09:24:58.504Z,48.16
2019-05-12T09:27:33.470Z,48.16
2019-05-12T09:30:09.655Z,48.24
2019-05-12T09:32:45.423Z,48.70
2019-05-12T09:35:18.171Z,49.54
2019-05-12T09:37:53.514Z,48.69
2019-05-12T09:40:27.446Z,48.69
2019-05-12T09:43:08.731Z,45.79
2019-05-12T09:45:40.757Z,45.79
2019-05-12T09:48:13.852Z,50.17
2019-05-12T09:50:51.550Z,50.17
2019-05-12T09:53:23.682Z,52.32
2019-05-12T09:55:58.581Z,54.27
2019-05-12T09:58:33.732Z,54.09
2019-05-12T10:01:07.590Z,54.09
2019-05-12T10:03:43.537Z,56.59
2019-05-12T10:06:20.993Z,53.49
2019-05-12T10:08:54.671Z,52.51
2019-05-12T10:11:27.504Z,51.64
2019-05-12T10:14:06.407Z,51.71
2019-05-12T10:16:39.463Z,51.28
2019-05-12T10:19:14.435Z,51.28
2019-05-12T10:21:49.145Z,47.05
2019-05-12T10:24:23.709Z,47.05
2019-05-12T10:26:57.476Z,48.50
2019-05-12T10:29:32.438Z,48.50
2019-05-12T10:32:06.247Z,47.44
2019-05-12T10:34:40.444Z,46.49
2019-05-12T10:37:14.276Z,45.61
2019-05-12T10:39:47.977Z,45.61
2019-05-12T10:42:21.679Z,47.62
2019-05-12T10:44:56.735Z,46.59
2019-05-12T10:47:30.655Z,46.37
2019-05-12T10:50:05.837Z,48.62
2019-05-12T10:52:39.587Z,48.62
2019-05-12T10:55:14.229Z,48.13
2019-05-12T10:57:52.979Z,47.52
2019-05-12T11:00:25.229Z,49.35
2019-05-12T11:03:01.582Z,49.30
2019-05-12T11:05:34.402Z,49.30
2019-05-12T11:08:11.087Z,49.17
2019-05-12T11:10:43.637Z,43.19
2019-05-12T11:13:18.152Z,43.19
2019-05-12T11:15:52.079Z,42.48
2019-05-12T11:18:30.523Z,45.09
2019-05-12T11:21:03.429Z,45.62
2019-05-12T11:23:36.879Z,45.13
2019-05-12T11:26:10.570Z,45.13
2019-05-12T11:28:44.265Z,45.03
2019-05-12T11:31:18.316Z,45.03
2019-05-12T11:33:53.953Z,45.76
2019-05-12T11:36:27.400Z,46.28
2019-05-12T11:39:01.106Z,43.91
2019-05-12T11:41:34.891Z,45.90
2019-05-12T11:44:08.608Z,45.90
2019-05-12T11:46:44.162Z,43.35
2019-05-12T11:49:21.673Z,44.03
2019-05-12T11:51:54.261Z,43.04
2019-05-12T11:54:28.228Z,43.04
2019-05-12T11:57:01.939Z,42.78
2019-05-12T11:59:35.639Z,42.78
2019-05-12T12:02:09.326Z,44.62
2019-05-12T12:04:43.534Z,42.09
2019-05-12T12:07:17.312Z,42.09
2019-05-12T12:09:56.194Z,42.69
2019-05-12T12:12:26.416Z,43.64
2019-05-12T12:15:00.226Z,41.11
2019-05-12T12:17:35.766Z,41.11
2019-05-12T12:20:13.938Z,39.37
2019-05-12T12:22:45.510Z,39.47
2019-05-12T12:25:19.201Z,38.95
2019-05-12T12:27:53.694Z,37.30
2019-05-12T12:30:27.678Z,42.17
2019-05-12T12:33:03.635Z,42.17
2019-05-12T12:35:36.824Z,41.79
2019-05-12T12:38:10.527Z,38.82
2019-05-12T12:40:44.344Z,38.82
2019-05-12T12:43:18.030Z,39.95
2019-05-12T12:45:51.738Z,40.07
2019-05-12T12:48:29.604Z,41.50
2019-05-12T12:51:00.856Z,40.55
2019-05-12T12:53:34.561Z,40.67
2019-05-12T12:56:08.261Z,41.16
2019-05-12T12:58:43.916Z,42.58
2019-05-12T13:01:23.252Z,39.92
2019-05-12T13:03:53.686Z,41.63
2019-05-12T13:06:27.434Z,41.63
2019-05-12T13:09:01.137Z,42.47
2019-05-12T13:11:35.092Z,41.79
2019-05-12T13:14:08.847Z,41.79
2019-05-12T13:16:43.679Z,40.81
2019-05-12T13:19:17.632Z,40.81
2019-05-12T13:21:53.208Z,41.45
2019-05-12T13:24:26.739Z,41.35
2019-05-12T13:27:00.435Z,41.35
2019-05-12T13:29:38.099Z,39.80
2019-05-12T13:32:09.530Z,38.01
2019-05-12T13:34:43.247Z,37.67
2019-05-12T13:37:19.510Z,38.29
2019-05-12T13:39:56.877Z,38.50
2019-05-12T13:42:30.370Z,38.50
2019-05-12T13:45:05.122Z,37.44
2019-05-12T13:47:39.986Z,37.76
2019-05-12T13:50:21.496Z,37.76
2019-05-12T13:52:49.415Z,37.47
2019-05-12T13:55:23.964Z,36.52
2019-05-12T13:57:57.991Z,37.62
2019-05-12T14:00:33.625Z,37.62
2019-05-12T14:03:09.517Z,35.72
2019-05-12T14:05:50.469Z,35.72
2019-05-12T14:08:17.999Z,36.11
2019-05-12T14:10:54.008Z,38.15
2019-05-12T14:13:27.110Z,36.68
2019-05-12T14:16:02.834Z,37.13
2019-05-12T14:18:36.473Z,34.82
2019-05-12T14:21:10.297Z,34.82
2019-05-12T14:23:43.992Z,36.40
2019-05-12T14:26:17.704Z,34.00
2019-05-12T14:28:53.331Z,35.85
2019-05-12T14:31:30.614Z,34.78
2019-05-12T14:34:04.199Z,35.79
2019-05-12T14:36:37.611Z,35.79
2019-05-12T14:39:13.351Z,35.36
2019-05-12T14:41:53.216Z,32.80
2019-05-12T14:44:23.750Z,33.89
2019-05-12T14:46:57.684Z,36.77
2019-05-12T14:49:33.219Z,37.19
2019-05-12T14:52:06.772Z,34.99
2019-05-12T14:54:40.477Z,34.99
2019-05-12T14:57:14.192Z,32.92
2019-05-12T14:59:47.905Z,34.95
2019-05-12T15:02:25.473Z,34.95
2019-05-12T15:05:00.151Z,34.94
2019-05-12T15:07:32.423Z,35.21
2019-05-12T15:10:08.543Z,35.21
2019-05-12T15:12:43.850Z,33.02
2019-05-12T15:15:20.506Z,33.02
2019-05-12T15:17:56.701Z,32.24
2019-05-12T15:20:28.129Z,32.24
2019-05-12T15:23:03.784Z,32.80
2019-05-12T15:25:37.301Z,32.36
2019-05-12T15:28:11.045Z,32.36
2019-05-12T15:30:44.751Z,29.93
2019-05-12T15:33:18.443Z,29.52
2019-05-12T15:35:54.427Z,29.52
2019-05-12T15:38:29.199Z,30.46
2019-05-12T15:41:04.198Z,29.96
2019-05-12T15:43:44.248Z,29.05
2019-05-12T15:46:16.326Z,30.10
2019-05-12T15:48:53.769Z,27.39
2019-05-12T15:51:35.052Z,27.55
2019-05-12T15:54:11.591Z,26.17
2019-05-12T15:56:42.088Z,26.17
2019-05-12T15:59:17.378Z,28.02
2019-05-12T16:01:53.297Z,27.52
2019-05-12T16:04:26.785Z,27.52
2019-05-12T16:07:00.479Z,28.10
2019-05-12T16:09:34.569Z,29.64
2019-05-12T16:12:18.787Z,31.80
2019-05-12T16:14:44.269Z,31.78
2019-05-12T16:17:24.665Z,31.78
2019-05-12T16:19:54.131Z,29.68
2019-05-12T16:22:30.692Z,32.25
2019-05-12T16:25:05.226Z,31.78
2019-05-12T16:27:38.934Z,33.51
2019-05-12T16:30:13.950Z,33.51
2019-05-12T16:32:48.226Z,30.64
2019-05-12T16:35:26.381Z,32.92
2019-05-12T16:37:57.411Z,31.71
2019-05-12T16:40:31.115Z,31.43
2019-05-12T16:43:04.816Z,32.42
2019-05-12T16:45:38.536Z,34.05
2019-05-12T16:48:28.680Z,34.05
2019-05-12T16:50:47.615Z,33.89
2019-05-12T16:53:25.800Z,32.98
2019-05-12T16:55:56.721Z,32.80
2019-05-12T16:58:33.322Z,32.94
2019-05-12T17:01:05.825Z,33.32
2019-05-12T17:03:39.535Z,32.58
2019-05-12T17:06:14.289Z,32.58
2019-05-12T17:08:48.106Z,32.64
2019-05-12T17:11:27.885Z,33.92
2019-05-12T17:14:04.016Z,34.09
2019-05-12T17:16:33.519Z,35.70
2019-05-12T17:19:10.448Z,34.90
2019-05-12T17:21:44.108Z,35.52
2019-05-12T17:24:18.037Z,34.99
2019-05-12T17:26:51.742Z,34.68
2019-05-12T17:29:25.437Z,34.66
2019-05-12T17:31:59.151Z,33.95
2019-05-12T17:34:33.988Z,33.95
2019-05-12T17:37:07.933Z,33.39
2019-05-12T17:39:43.638Z,33.39
2019-05-12T17:42:21.385Z,36.07
2019-05-12T17:44:54.468Z,35.45
2019-05-12T17:47:27.857Z,35.73
2019-05-12T17:50:06.828Z,35.73
2019-05-12T17:52:36.988Z,36.61
2019-05-12T17:55:10.978Z,36.84
2019-05-12T17:57:44.786Z,36.84
2019-05-12T18:00:18.490Z,37.27
2019-05-12T18:02:56.265Z,37.56
2019-05-12T18:05:27.602Z,37.56
2019-05-12T18:08:01.398Z,37.53
2019-05-12T18:10:37.947Z,37.59
2019-05-12T18:13:15.071Z,36.98
2019-05-12T18:15:45.989Z,36.44
2019-05-12T18:18:24.101Z,36.87
2019-05-12T18:20:55.707Z,36.81
2019-05-12T18:23:30.441Z,37.64
2019-05-12T18:26:11.811Z,38.39
2019-05-12T18:28:39.712Z,38.03
2019-05-12T18:31:13.849Z,38.03
2019-05-12T18:33:52.101Z,37.31
2019-05-12T18:36:23.682Z,37.31
2019-05-12T18:39:09.222Z,38.08
2019-05-12T18:41:33.670Z,38.08
2019-05-12T18:44:07.649Z,38.96
2019-05-12T18:46:44.965Z,38.96
2019-05-12T18:49:16.743Z,39.13
2019-05-12T18:51:55.207Z,40.27
2019-05-12T18:54:25.820Z,40.27
2019-05-12T18:57:04.865Z,39.74
2019-05-12T18:59:34.951Z,40.01
2019-05-12T19:02:08.652Z,39.67
2019-05-12T19:04:44.348Z,39.67
2019-05-12T19:07:17.727Z,39.71
2019-05-12T19:09:51.507Z,40.03
2019-05-12T19:12:32.216Z,40.03
2019-05-12T19:15:00.583Z,40.30
2019-05-12T19:17:34.348Z,41.27
2019-05-12T19:20:08.052Z,41.07
2019-05-12T19:22:48.248Z,41.20
2019-05-12T19:25:19.370Z,41.20
2019-05-12T19:28:04.580Z,41.30
2019-05-12T19:30:27.996Z,41.30
2019-05-12T19:33:06.409Z,41.38
2019-05-12T19:35:38.060Z,41.56
2019-05-12T19:38:15.091Z,41.56
2019-05-12T19:40:55.106Z,42.98
2019-05-12T19:43:23.793Z,43.59
2019-05-12T19:46:02.954Z,43.64
2019-05-12T19:48:36.763Z,42.79
2019-05-12T19:51:20.764Z,42.79
2019-05-12T19:53:43.931Z,42.99
2019-05-12T19:56:19.016Z,42.99
2019-05-12T19:58:53.825Z,42.99
2019-05-12T20:01:32.739Z,44.70
2019-05-12T20:04:03.709Z,44.70
2019-05-12T20:06:37.586Z,45.43
2019-05-12T20:09:14.287Z,45.40
2019-05-12T20:11:46.704Z,45.06
2019-05-12T20:14:21.491Z,45.06
2019-05-12T20:16:55.816Z,44.61
2019-05-12T20:19:29.503Z,45.33
2019-05-12T20:22:03.593Z,45.62
2019-05-12T20:24:37.392Z,45.71
2019-05-12T20:27:17.146Z,45.89
2019-05-12T20:29:46.498Z,45.89
2019-05-12T20:32:20.197Z,47.04
2019-05-12T20:34:55.349Z,47.04
2019-05-12T20:37:29.276Z,47.74
2019-05-12T20:40:05.261Z,47.75
2019-05-12T20:42:42.217Z,47.66
2019-05-12T20:45:14.618Z,47.66
2019-05-12T20:47:48.335Z,46.71
2019-05-12T20:50:24.188Z,48.41
2019-05-12T20:52:58.876Z,48.41
2019-05-12T20:55:39.512Z,49.43
2019-05-12T20:58:08.309Z,49.90
2019-05-12T21:00:45.551Z,48.75
2019-05-12T21:03:17.404Z,48.61
2019-05-12T21:05:58.109Z,49.53
2019-05-12T21:08:26.467Z,49.53
2019-05-12T21:11:00.181Z,50.12
2019-05-12T21:13:34.540Z,48.99
2019-05-12T21:16:16.588Z,48.60
2019-05-12T21:18:49.936Z,48.50
2019-05-12T21:21:19.263Z,48.90
2019-05-12T21:24:00.269Z,48.92
2019-05-12T21:26:39.946Z,49.01
2019-05-12T21:29:13.961Z,49.01
2019-05-12T21:31:49.169Z,49.60
2019-05-12T21:34:25.396Z,49.60
2019-05-12T21:36:59.089Z,49.81
2019-05-12T21:39:33.680Z,49.81
2019-05-12T21:42:07.422Z,49.89
2019-05-12T21:44:46.251Z,49.99
2019-05-12T21:47:16.535Z,49.99
2019-05-12T21:49:55.120Z,51.59
2019-05-12T21:52:25.641Z,51.59
2019-05-12T21:54:59.339Z,51.58
2019-05-12T21:57:34.528Z,51.56
2019-05-12T22:00:18.259Z,51.47
2019-05-12T22:02:49.722Z,52.87
2019-05-12T22:05:46.650Z,52.22
2019-05-12T22:07:58.859Z,52.98
2019-05-12T22:10:34.464Z,53.60
2019-05-12T22:13:14.117Z,53.60
2019-05-12T22:15:43.382Z,53.36
2019-05-12T22:18:17.079Z,53.54
2019-05-12T22:20:52.336Z,53.05
2019-05-12T22:23:26.346Z,52.90
2019-05-12T22:26:00.506Z,53.33
2019-05-12T22:28:34.419Z,53.33
2019-05-12T22:31:08.150Z,53.60
2019-05-12T22:33:51.578Z,53.97
2019-05-12T22:36:25.741Z,55.57
2019-05-12T22:39:00.520Z,56.19
2019-05-12T22:41:30.450Z,56.19
2019-05-12T22:44:03.425Z,54.70
2019-05-12T22:46:37.104Z,54.70
2019-05-12T22:49:16.815Z,54.12
2019-05-12T22:51:46.579Z,54.12
2019-05-12T22:54:20.508Z,54.19
2019-05-12T22:56:55.196Z,54.06
2019-05-12T22:59:34.311Z,54.16
2019-05-12T23:02:05.001Z,54.60
2019-05-12T23:04:40.365Z,54.60
2019-05-12T23:07:19.187Z,57.59
2019-05-12T23:09:49.661Z,57.59
2019-05-12T23:12:23.720Z,60.12
2019-05-12T23:15:02.892Z,58.16
2019-05-12T23:17:33.847Z,58.16
2019-05-12T23:20:07.842Z,57.54
2019-05-12T23:22:43.665Z,55.60
2019-05-12T23:25:21.347Z,56.23
2019-05-12T23:27:54.241Z,56.55
2019-05-12T23:30:27.713Z,58.27
2019-05-12T23:33:03.556Z,58.58
2019-05-12T23:35:39.419Z,57.70
2019-05-12T23:38:18.790Z,57.70
2019-05-12T23:40:48.587Z,56.75
2019-05-12T23:43:23.727Z,57.04
2019-05-12T23:45:57.649Z,59.92
2019-05-12T23:48:33.371Z,59.55
2019-05-12T23:51:06.739Z,59.95
2019-05-12T23:53:40.410Z,58.87
2019-05-12T23:56:14.105Z,57.24
2019-05-12T23:58:47.785Z,57.76
